createdAt,value
2022-08-23T00:01:23.982Z,14.08
2022-08-23T00:03:53.390Z,14.03
2022-08-23T00:06:22.704Z,13.98
2022-08-23T00:08:52.057Z,13.93
2022-08-23T00:11:28.884Z,13.87
2022-08-23T00:13:56.526Z,13.82
2022-08-23T00:16:23.858Z,13.76
2022-08-23T00:18:50.879Z,13.72
2022-08-23T00:21:18.009Z,13.68
2022-08-23T00:23:44.892Z,13.64
2022-08-23T00:26:11.873Z,13.59
2022-08-23T00:28:39.016Z,13.56
2022-08-23T00:31:06.078Z,13.53
2022-08-23T00:33:33.076Z,13.50
2022-08-23T00:36:00.119Z,13.47
2022-08-23T00:38:34.235Z,13.43
2022-08-23T00:41:02.937Z,13.40
2022-08-23T00:43:54.384Z,13.37
2022-08-23T00:47:02.117Z,13.33
2022-08-23T00:49:31.828Z,13.30
2022-08-23T00:52:09.309Z,12.85
2022-08-23T00:54:39.454Z,13.24
2022-08-23T00:57:12.043Z,13.19
2022-08-23T00:59:39.441Z,13.17
2022-08-23T01:02:07.580Z,13.14
2022-08-23T01:04:40.159Z,12.99
2022-08-23T01:07:20.755Z,13.08
2022-08-23T01:09:51.273Z,13.08
2022-08-23T01:12:33.352Z,13.04
2022-08-23T01:15:07.400Z,13.00
2022-08-23T01:18:06.468Z,12.98
2022-08-23T01:20:52.080Z,12.95
2022-08-23T01:23:37.042Z,12.95
2022-08-23T01:26:05.944Z,12.96
2022-08-23T01:28:33.697Z,12.96
2022-08-23T01:31:01.569Z,12.82
2022-08-23T01:33:29.648Z,12.94
2022-08-23T01:35:58.544Z,12.94
2022-08-23T01:38:32.720Z,12.92
2022-08-23T01:41:00.496Z,12.90
2022-08-23T01:43:27.592Z,12.84
2022-08-23T01:45:55.874Z,12.90
2022-08-23T01:48:25.634Z,12.86
2022-08-23T01:50:52.787Z,12.84
2022-08-23T01:53:20.067Z,12.82
2022-08-23T01:55:49.899Z,12.81
2022-08-23T01:58:19.334Z,12.78
2022-08-23T02:00:46.401Z,12.71
2022-08-23T02:03:14.268Z,12.76
2022-08-23T02:05:42.719Z,12.75
2022-08-23T02:08:30.365Z,12.73
2022-08-23T02:10:59.452Z,12.71
2022-08-23T02:13:27.153Z,12.70
2022-08-23T02:15:55.245Z,12.68
2022-08-23T02:18:23.733Z,12.66
2022-08-23T02:20:52.919Z,12.62
2022-08-23T02:23:20.972Z,12.59
2022-08-23T02:25:48.652Z,12.58
2022-08-23T02:28:15.943Z,12.56
2022-08-23T02:30:45.340Z,12.53
2022-08-23T02:33:14.233Z,12.34
2022-08-23T02:35:43.589Z,12.49
2022-08-23T02:38:13.205Z,12.47
2022-08-23T02:40:42.348Z,12.45
2022-08-23T02:43:10.484Z,12.37
2022-08-23T02:45:38.976Z,12.39
2022-08-23T02:48:08.206Z,12.37
2022-08-23T02:50:43.774Z,12.35
2022-08-23T02:53:10.913Z,12.34
2022-08-23T02:55:38.572Z,12.31
2022-08-23T02:58:05.870Z,12.27
2022-08-23T03:00:32.971Z,12.24
2022-08-23T03:03:00.201Z,12.23
2022-08-23T03:05:27.353Z,12.20
2022-08-23T03:07:54.606Z,12.16
2022-08-23T03:10:21.749Z,12.09
2022-08-23T03:12:54.849Z,12.10
2022-08-23T03:15:21.875Z,12.06
2022-08-23T03:17:49.309Z,12.03
2022-08-23T03:20:17.063Z,11.99
2022-08-23T03:22:48.357Z,11.96
2022-08-23T03:25:22.421Z,11.91
2022-08-23T03:28:16.570Z,11.89
2022-08-23T03:30:45.006Z,11.88
2022-08-23T03:33:13.174Z,11.83
2022-08-23T03:35:41.172Z,11.84
2022-08-23T03:38:30.729Z,11.82
2022-08-23T03:41:18.694Z,11.61
2022-08-23T03:44:05.697Z,11.75
2022-08-23T03:46:56.094Z,11.71
2022-08-23T03:49:43.256Z,11.29
2022-08-23T03:52:11.388Z,11.61
2022-08-23T03:54:38.931Z,11.57
2022-08-23T03:57:09.552Z,11.49
2022-08-23T03:59:40.116Z,11.53
2022-08-23T04:02:10.137Z,11.51
2022-08-23T04:04:37.277Z,11.50
2022-08-23T04:07:28.397Z,11.47
2022-08-23T04:09:58.068Z,11.47
2022-08-23T04:12:28.708Z,11.46
2022-08-23T04:14:55.714Z,11.45
2022-08-23T04:17:24.098Z,11.44
2022-08-23T04:19:52.615Z,11.43
2022-08-23T04:22:20.576Z,11.43
2022-08-23T04:24:48.208Z,11.42
2022-08-23T04:27:16.806Z,11.21
2022-08-23T04:29:45.214Z,11.41
2022-08-23T04:32:12.512Z,11.41
2022-08-23T04:34:45.571Z,11.29
2022-08-23T04:37:18.793Z,11.40
2022-08-23T04:40:04.316Z,11.40
2022-08-23T04:42:40.975Z,11.24
2022-08-23T04:45:08.388Z,11.38
2022-08-23T04:47:40.373Z,11.38
2022-08-23T04:50:09.528Z,11.35
2022-08-23T04:52:48.093Z,11.37
2022-08-23T04:55:15.953Z,11.36
2022-08-23T04:57:52.317Z,11.38
2022-08-23T05:00:23.464Z,11.38
2022-08-23T05:02:57.680Z,11.35
2022-08-23T05:05:27.833Z,11.36
2022-08-23T05:07:55.624Z,11.42
2022-08-23T05:10:23.046Z,11.43
2022-08-23T05:12:53.127Z,11.45
2022-08-23T05:15:21.735Z,11.45
2022-08-23T05:17:56.221Z,11.46
2022-08-23T05:20:24.153Z,11.49
2022-08-23T05:22:51.432Z,11.52
2022-08-23T05:25:49.536Z,11.54
2022-08-23T05:28:29.661Z,11.58
2022-08-23T05:30:59.733Z,11.59
2022-08-23T05:33:32.242Z,11.62
2022-08-23T05:36:00.122Z,11.37
2022-08-23T05:38:28.131Z,11.63
2022-08-23T05:40:59.923Z,11.72
2022-08-23T05:43:27.190Z,11.78
2022-08-23T05:46:28.401Z,11.83
2022-08-23T05:49:21.814Z,11.90
2022-08-23T05:51:51.673Z,11.96
2022-08-23T05:54:20.579Z,12.01
2022-08-23T05:56:59.958Z,12.08
2022-08-23T05:59:26.929Z,12.14
2022-08-23T06:02:14.354Z,12.21
2022-08-23T06:05:01.347Z,12.29
2022-08-23T06:07:48.344Z,12.37
2022-08-23T06:10:41.709Z,12.45
2022-08-23T06:13:46.162Z,12.55
2022-08-23T06:16:36.144Z,12.61
2022-08-23T06:19:25.024Z,12.69
2022-08-23T06:22:18.042Z,12.81
2022-08-23T06:25:09.109Z,12.89
2022-08-23T06:28:18.248Z,12.99
2022-08-23T06:31:06.567Z,13.07
2022-08-23T06:33:56.055Z,13.15
2022-08-23T06:37:01.753Z,13.25
2022-08-23T06:40:12.107Z,13.33
2022-08-23T06:43:14.792Z,13.41
2022-08-23T06:46:35.294Z,13.48
2022-08-23T06:49:22.531Z,13.56
2022-08-23T06:52:12.164Z,13.70
2022-08-23T06:55:37.558Z,13.82
2022-08-23T06:58:46.783Z,13.71
2022-08-23T07:01:58.496Z,14.03
2022-08-23T07:05:01.245Z,14.10
2022-08-23T07:08:11.892Z,14.02
2022-08-23T07:10:59.484Z,14.31
2022-08-23T07:13:46.582Z,14.39
2022-08-23T07:16:34.293Z,14.47
2022-08-23T07:19:22.288Z,14.55
2022-08-23T07:22:17.469Z,14.65
2022-08-23T07:25:04.536Z,14.61
2022-08-23T07:27:53.022Z,14.84
2022-08-23T07:30:44.942Z,14.90
2022-08-23T07:33:32.946Z,14.95
2022-08-23T07:36:29.520Z,15.09
2022-08-23T07:39:17.412Z,15.17
2022-08-23T07:42:15.945Z,15.25
2022-08-23T07:45:13.197Z,15.27
2022-08-23T07:48:01.255Z,15.41
2022-08-23T07:50:56.681Z,15.49
2022-08-23T07:53:48.340Z,15.59
2022-08-23T07:56:39.064Z,15.65
2022-08-23T07:59:34.449Z,15.71
2022-08-23T08:02:53.755Z,15.81
2022-08-23T08:05:47.809Z,15.92
2022-08-23T08:08:35.521Z,16.01
2022-08-23T08:11:22.736Z,16.09
2022-08-23T08:14:11.577Z,16.15
2022-08-23T08:17:08.257Z,16.09
2022-08-23T08:20:15.644Z,16.33
2022-08-23T08:23:28.907Z,16.42
2022-08-23T08:26:32.053Z,16.50
2022-08-23T08:29:19.738Z,16.61
2022-08-23T08:32:06.830Z,16.71
2022-08-23T08:34:58.664Z,16.79
2022-08-23T08:37:45.621Z,16.86
2022-08-23T08:40:45.438Z,16.94
2022-08-23T08:43:50.624Z,17.02
2022-08-23T08:46:53.599Z,17.06
2022-08-23T08:50:00.118Z,17.16
2022-08-23T08:52:50.957Z,17.23
2022-08-23T08:55:58.795Z,17.31
2022-08-23T08:59:01.976Z,17.26
2022-08-23T09:01:52.634Z,17.44
2022-08-23T09:04:48.216Z,17.50
2022-08-23T09:07:53.682Z,17.56
2022-08-23T09:10:40.975Z,17.64
2022-08-23T09:13:46.355Z,17.73
2022-08-23T09:16:50.022Z,17.82
2022-08-23T09:19:39.233Z,17.82
2022-08-23T09:22:32.649Z,18.00
2022-08-23T09:25:20.020Z,18.11
2022-08-23T09:28:16.692Z,18.18
2022-08-23T09:31:17.441Z,18.31
2022-08-23T09:34:08.560Z,18.36
2022-08-23T09:37:05.612Z,18.51
2022-08-23T09:39:54.899Z,18.85
2022-08-23T09:42:54.729Z,19.12
2022-08-23T09:45:53.049Z,19.38
2022-08-23T09:48:55.969Z,19.66
2022-08-23T09:51:54.913Z,19.91
2022-08-23T09:54:47.495Z,20.12
2022-08-23T09:57:45.154Z,20.27
2022-08-23T10:00:49.583Z,20.32
2022-08-23T10:03:48.866Z,20.61
2022-08-23T10:06:52.537Z,20.83
2022-08-23T10:09:52.881Z,20.99
2022-08-23T10:12:41.085Z,21.16
2022-08-23T10:15:32.995Z,21.34
2022-08-23T10:18:31.054Z,21.50
2022-08-23T10:21:39.349Z,21.70
2022-08-23T10:24:32.462Z,21.86
2022-08-23T10:27:24.085Z,21.98
2022-08-23T10:30:21.025Z,21.96
2022-08-23T10:33:18.601Z,22.12
2022-08-23T10:36:26.561Z,22.17
2022-08-23T10:39:18.093Z,22.24
2022-08-23T10:42:24.600Z,22.33
2022-08-23T10:45:23.545Z,22.44
2022-08-23T10:48:49.062Z,22.56
2022-08-23T10:51:42.136Z,22.63
2022-08-23T10:54:52.129Z,22.76
2022-08-23T10:57:53.640Z,22.82
2022-08-23T11:00:46.017Z,22.79
2022-08-23T11:03:47.803Z,22.96
2022-08-23T11:07:00.740Z,23.05
2022-08-23T11:09:55.137Z,23.10
2022-08-23T11:12:50.608Z,23.11
2022-08-23T11:16:22.801Z,23.12
2022-08-23T11:19:11.101Z,23.17
2022-08-23T11:22:03.617Z,23.21
2022-08-23T11:24:53.180Z,23.29
2022-08-23T11:27:51.751Z,23.41
2022-08-23T11:30:36.778Z,23.51
2022-08-23T11:33:39.331Z,23.56
2022-08-23T11:36:29.229Z,23.60
2022-08-23T11:39:24.558Z,23.77
2022-08-23T11:42:16.238Z,23.81
2022-08-23T11:45:08.362Z,23.83
2022-08-23T11:48:03.949Z,23.91
2022-08-23T11:51:18.348Z,24.01
2022-08-23T11:54:14.472Z,24.08
2022-08-23T11:57:15.826Z,24.13
2022-08-23T12:00:37.206Z,24.22
2022-08-23T12:03:41.880Z,24.22
2022-08-23T12:06:53.071Z,24.17
2022-08-23T12:09:39.987Z,24.29
2022-08-23T12:12:50.393Z,24.33
2022-08-23T12:15:37.566Z,24.40
2022-08-23T12:18:32.992Z,24.31
2022-08-23T12:21:23.147Z,24.26
2022-08-23T12:24:32.330Z,24.27
2022-08-23T12:27:38.258Z,24.28
2022-08-23T12:30:44.247Z,24.30
2022-08-23T12:33:53.280Z,24.31
2022-08-23T12:37:08.858Z,24.27
2022-08-23T12:40:00.049Z,24.43
2022-08-23T12:42:49.600Z,24.51
2022-08-23T12:45:42.173Z,24.61
2022-08-23T12:48:32.256Z,24.72
2022-08-23T12:51:22.620Z,24.75
2022-08-23T12:54:09.620Z,24.74
2022-08-23T12:56:56.813Z,24.75
2022-08-23T13:00:16.706Z,24.72
2022-08-23T13:03:12.652Z,24.73
2022-08-23T13:06:15.542Z,24.72
2022-08-23T13:09:11.713Z,24.67
2022-08-23T13:12:00.325Z,24.61
2022-08-23T13:14:54.083Z,24.53
2022-08-23T13:17:46.940Z,24.44
2022-08-23T13:20:42.273Z,24.33
2022-08-23T13:23:29.273Z,24.23
2022-08-23T13:26:16.750Z,24.14
2022-08-23T13:29:21.972Z,23.97
2022-08-23T13:32:21.263Z,23.79
2022-08-23T13:35:08.285Z,23.62
2022-08-23T13:37:55.454Z,23.51
2022-08-23T13:40:47.160Z,23.40
2022-08-23T13:43:41.150Z,23.27
2022-08-23T13:46:39.638Z,23.16
2022-08-23T13:49:38.168Z,23.08
2022-08-23T13:55:36.270Z,22.84
2022-08-23T13:58:10.566Z,22.80
2022-08-23T14:00:58.869Z,22.71
2022-08-23T14:03:49.186Z,22.63
2022-08-23T14:06:16.470Z,22.57
2022-08-23T14:08:43.570Z,22.51
2022-08-23T14:11:15.032Z,22.47
2022-08-23T14:13:47.933Z,22.35
2022-08-23T14:16:34.640Z,22.27
2022-08-23T14:20:31.365Z,22.20
2022-08-23T14:21:51.396Z,22.13
2022-08-23T14:24:20.901Z,22.07
2022-08-23T14:26:51.762Z,22.01
2022-08-23T14:29:22.619Z,21.77
2022-08-23T14:31:52.114Z,21.89
2022-08-23T14:34:40.411Z,21.82
2022-08-23T14:40:15.729Z,21.68
2022-08-23T14:43:04.607Z,21.62
2022-08-23T14:45:51.898Z,21.51
2022-08-23T14:48:39.417Z,21.46
2022-08-23T14:51:26.645Z,21.47
2022-08-23T14:54:14.846Z,21.40
2022-08-23T14:56:41.942Z,21.34
2022-08-23T14:59:08.896Z,21.30
2022-08-23T15:01:37.310Z,21.28
2022-08-23T15:04:05.183Z,21.24
2022-08-23T15:06:32.300Z,21.21
2022-08-23T15:08:59.416Z,21.19
2022-08-23T15:14:14.027Z,21.05
2022-08-23T15:16:41.547Z,21.05
2022-08-23T15:19:08.608Z,20.96
2022-08-23T15:21:35.584Z,21.08
2022-08-23T15:24:02.848Z,20.98
2022-08-23T15:26:31.417Z,21.10
2022-08-23T15:28:59.711Z,20.99
2022-08-23T15:31:27.364Z,21.14
2022-08-23T15:33:54.537Z,21.15
2022-08-23T15:36:21.719Z,21.15
2022-08-23T15:38:50.567Z,21.15
2022-08-23T15:41:19.128Z,21.16
2022-08-23T15:43:46.484Z,21.17
2022-08-23T15:46:21.656Z,21.20
2022-08-23T15:48:54.780Z,21.24
2022-08-23T15:51:21.812Z,21.23
2022-08-23T15:53:48.913Z,21.04
2022-08-23T15:56:21.161Z,21.26
2022-08-23T15:58:48.704Z,21.26
2022-08-23T16:01:19.832Z,21.11
2022-08-23T16:03:50.026Z,21.28
2022-08-23T16:06:17.893Z,21.27
2022-08-23T16:08:49.944Z,21.25
2022-08-23T16:11:17.037Z,21.16
2022-08-23T16:13:45.528Z,21.26
2022-08-23T16:16:32.225Z,21.24
2022-08-23T16:19:00.129Z,21.20
2022-08-23T16:21:29.987Z,21.19
2022-08-23T16:23:58.010Z,21.19
2022-08-23T16:26:34.805Z,21.17
2022-08-23T16:29:05.808Z,21.11
2022-08-23T16:31:39.086Z,21.06
2022-08-23T16:34:09.493Z,21.07
2022-08-23T16:36:37.053Z,21.09
2022-08-23T16:39:05.597Z,21.05
2022-08-23T16:41:32.832Z,21.09
2022-08-23T16:44:00.015Z,20.95
2022-08-23T16:46:29.246Z,21.01
2022-08-23T16:48:56.400Z,20.93
2022-08-23T16:51:23.452Z,20.84
2022-08-23T16:54:01.777Z,20.71
2022-08-23T16:56:34.261Z,20.59
2022-08-23T16:59:03.196Z,20.55
2022-08-23T17:01:42.350Z,20.52
2022-08-23T17:04:10.065Z,20.50
2022-08-23T17:06:37.033Z,20.49
2022-08-23T17:09:04.234Z,20.43
2022-08-23T17:11:32.973Z,20.40
2022-08-23T17:14:04.817Z,20.34
2022-08-23T17:16:33.226Z,20.30
2022-08-23T17:19:00.513Z,20.25
2022-08-23T17:21:27.508Z,20.16
2022-08-23T17:23:54.924Z,19.83
2022-08-23T17:26:22.312Z,19.96
2022-08-23T17:28:49.300Z,19.86
2022-08-23T17:31:17.901Z,19.78
2022-08-23T17:33:46.377Z,19.72
2022-08-23T17:36:43.094Z,19.68
2022-08-23T17:39:17.773Z,19.66
2022-08-23T17:41:45.656Z,19.69
2022-08-23T17:44:13.845Z,19.47
2022-08-23T17:46:44.462Z,19.49
2022-08-23T17:49:12.562Z,19.47
2022-08-23T17:51:41.202Z,19.47
2022-08-23T17:54:10.094Z,19.42
2022-08-23T17:56:38.197Z,19.40
2022-08-23T17:59:08.648Z,19.38
2022-08-23T18:01:37.193Z,19.33
2022-08-23T18:04:07.415Z,19.30
2022-08-23T18:06:36.541Z,19.26
2022-08-23T18:09:07.859Z,19.19
2022-08-23T18:11:36.345Z,19.16
2022-08-23T18:14:04.240Z,19.13
2022-08-23T18:16:35.681Z,18.89
2022-08-23T18:19:06.079Z,19.00
2022-08-23T18:21:38.588Z,18.93
2022-08-23T18:24:06.697Z,18.85
2022-08-23T18:26:54.073Z,18.80
2022-08-23T18:29:21.846Z,18.59
2022-08-23T18:31:48.921Z,18.69
2022-08-23T18:34:16.665Z,18.65
2022-08-23T18:37:04.409Z,18.60
2022-08-23T18:39:51.513Z,18.55
2022-08-23T18:42:38.612Z,18.49
2022-08-23T18:45:26.615Z,18.35
2022-08-23T18:48:13.707Z,18.39
2022-08-23T18:51:01.640Z,18.33
2022-08-23T18:53:49.534Z,18.30
2022-08-23T18:56:36.732Z,18.26
2022-08-23T18:59:24.476Z,18.23
2022-08-23T19:02:11.782Z,18.20
2022-08-23T19:04:58.753Z,18.16
2022-08-23T19:07:45.879Z,18.13
2022-08-23T19:10:32.858Z,18.10
2022-08-23T19:13:20.443Z,17.94
2022-08-23T19:16:07.420Z,18.01
2022-08-23T19:18:54.359Z,17.99
2022-08-23T19:21:44.590Z,17.96
2022-08-23T19:24:31.621Z,17.92
2022-08-23T19:27:18.644Z,17.89
2022-08-23T19:30:05.837Z,17.84
2022-08-23T19:32:53.657Z,17.79
2022-08-23T19:35:40.619Z,17.67
2022-08-23T19:38:27.478Z,17.70
2022-08-23T19:41:15.528Z,17.66
2022-08-23T19:44:02.693Z,17.56
2022-08-23T19:46:49.716Z,17.57
2022-08-23T19:49:37.206Z,17.42
2022-08-23T19:52:25.081Z,17.46
2022-08-23T19:55:12.040Z,17.41
2022-08-23T19:57:59.160Z,17.37
2022-08-23T20:00:47.067Z,17.34
2022-08-23T20:03:34.100Z,17.30
2022-08-23T20:06:20.944Z,17.27
2022-08-23T20:09:08.036Z,17.23
2022-08-23T20:11:55.263Z,17.21
2022-08-23T20:14:44.228Z,17.16
2022-08-23T20:17:31.704Z,17.12
2022-08-23T20:20:18.819Z,17.05
2022-08-23T20:23:04.440Z,16.97
2022-08-23T20:25:31.671Z,17.02
2022-08-23T20:27:58.777Z,16.97
2022-08-23T20:30:25.773Z,16.93
2022-08-23T20:32:52.799Z,16.89
2022-08-23T20:35:19.700Z,16.86
2022-08-23T20:37:46.611Z,16.82
2022-08-23T20:40:14.870Z,16.78
2022-08-23T20:42:41.992Z,16.59
2022-08-23T20:45:09.379Z,16.72
2022-08-23T20:47:36.749Z,16.73
2022-08-23T20:50:04.128Z,16.71
2022-08-23T20:52:34.505Z,16.69
2022-08-23T20:55:02.317Z,16.53
2022-08-23T20:57:35.812Z,16.63
2022-08-23T21:00:07.840Z,16.61
2022-08-23T21:02:34.890Z,16.57
2022-08-23T21:05:01.808Z,16.53
2022-08-23T21:07:31.941Z,16.51
2022-08-23T21:09:59.026Z,16.48
2022-08-23T21:12:28.123Z,16.40
2022-08-23T21:14:56.812Z,16.42
2022-08-23T21:17:23.829Z,16.37
2022-08-23T21:19:50.942Z,16.21
2022-08-23T21:22:18.132Z,16.33
2022-08-23T21:24:45.141Z,16.30
2022-08-23T21:27:12.696Z,16.27
2022-08-23T21:29:40.457Z,16.24
2022-08-23T21:32:08.011Z,16.22
2022-08-23T21:34:35.008Z,16.20
2022-08-23T21:37:02.068Z,16.16
2022-08-23T21:39:49.071Z,16.14
2022-08-23T21:42:36.057Z,16.12
2022-08-23T21:45:23.741Z,16.08
2022-08-23T21:48:10.724Z,15.94
2022-08-23T21:50:57.577Z,16.01
2022-08-23T21:53:44.604Z,15.97
2022-08-23T21:56:31.476Z,15.94
2022-08-23T21:59:24.162Z,15.90
2022-08-23T22:02:11.103Z,15.88
2022-08-23T22:04:58.508Z,15.82
2022-08-23T22:07:45.348Z,15.81
2022-08-23T22:10:32.577Z,15.82
2022-08-23T22:13:19.469Z,15.80
2022-08-23T22:16:06.787Z,15.78
2022-08-23T22:18:54.788Z,15.75
2022-08-23T22:21:41.843Z,15.73
2022-08-23T22:24:30.677Z,15.71
2022-08-23T22:27:17.910Z,15.69
2022-08-23T22:30:04.911Z,15.66
2022-08-23T22:32:51.809Z,15.65
2022-08-23T22:35:38.844Z,15.62
2022-08-23T22:38:25.925Z,15.60
2022-08-23T22:41:13.184Z,15.58
2022-08-23T22:44:00.406Z,15.55
2022-08-23T22:46:50.404Z,15.53
2022-08-23T22:49:37.860Z,15.50
2022-08-23T22:52:25.017Z,15.49
2022-08-23T22:55:12.340Z,15.47
2022-08-23T22:57:59.278Z,15.44
2022-08-23T23:00:46.371Z,15.41
2022-08-23T23:03:33.234Z,15.37
2022-08-23T23:06:20.830Z,15.36
2022-08-23T23:09:08.740Z,15.33
2022-08-23T23:11:57.069Z,15.35
2022-08-23T23:14:44.182Z,15.32
2022-08-23T23:17:31.417Z,15.30
2022-08-23T23:20:16.776Z,15.28
2022-08-23T23:23:04.582Z,15.01
2022-08-23T23:25:51.773Z,15.19
2022-08-23T23:28:40.601Z,15.16
2022-08-23T23:31:27.763Z,15.12
2022-08-23T23:34:14.724Z,15.09
2022-08-23T23:37:01.821Z,15.06
2022-08-23T23:39:48.893Z,15.04
2022-08-23T23:42:35.829Z,14.99
2022-08-23T23:45:22.873Z,14.96
2022-08-23T23:48:10.197Z,15.00
2022-08-23T23:51:01.385Z,14.97
2022-08-23T23:53:48.263Z,14.89
2022-08-23T23:56:36.981Z,14.90
2022-08-23T23:59:23.926Z,14.90
